Time;durP1;ratioP1;P1;durP2;ratioP2;P2;SDS_P1;SDS_P2;PMS_P1;PMS_P2;Temp;Humidity;BMP_temperature;BMP_pressure;BME280_temperature;BME280_humidity;BME280_pressure;Samples;Min_cycle;Max_cycle;Signal;HPM_P1;HPM_P2
2021/07/05 04:58:26;;;;;;;;;;;;;;;27.14;57.29;99559.10;1838391;77;20190;-72
2021/07/05 05:00:52;;;;;;;;;;;;;;;27.01;57.42;99556.41;1787499;78;20141;-73
2021/07/05 05:03:24;;;;;;;;;;;;;;;26.98;57.97;99553.63;1794409;78;21114;-76
2021/07/05 05:05:54;;;;;;;;;;;;;;;27.02;57.75;99554.87;1800940;78;20143;-72
2021/07/05 05:08:25;;;;;;;;;;;;;;;27.03;57.85;99549.83;1812021;78;20423;-74
2021/07/05 05:10:53;;;;;;;;;;;;;;;27.02;58.05;99544.18;1813683;78;20420;-75
2021/07/05 05:13:21;;;;;;;;;;;;;;;26.98;57.87;99550.13;1811334;78;20112;-77
2021/07/05 05:15:49;;;;;;;;;;;;;;;26.94;57.96;99542.18;1795981;78;20145;-73
2021/07/05 05:18:18;;;;;;;;;;;;;;;26.91;58.12;99528.71;1803679;78;20125;-74
2021/07/05 05:20:47;;;;;;;;;;;;;;;26.96;58.40;99524.95;1796296;78;20418;-74
2021/07/05 05:23:13;;;;;;;;;;;;;;;27.02;57.69;99530.81;1811758;78;20135;-77
2021/07/05 05:25:42;;;;;;;;;;;;;;;27.06;58.10;99524.55;1794050;78;20122;-75
2021/07/05 05:28:09;;;;;;;;;;;;;;;27.11;57.37;99528.26;1803317;78;22391;-79
2021/07/05 05:30:36;;;;;;;;;;;;;;;27.18;57.41;99527.75;1801315;78;20203;-73
2021/07/05 05:33:03;;;;;;;;;;;;;;;27.31;57.52;99528.23;1804738;78;20300;-78
2021/07/05 05:35:30;;;;;;;;;;;;;;;27.50;57.33;99521.24;1801388;78;20078;-78
2021/07/05 05:37:57;;;;;;;;;;;;;;;27.65;55.83;99520.50;1791917;78;20163;-72
2021/07/05 05:40:25;;;;;;;;;;;;;;;27.67;56.06;99525.13;1782434;78;21077;-78
2021/07/05 05:42:52;;;;;;;;;;;;;;;27.65;56.38;99519.69;1809776;78;20183;-75
2021/07/05 05:45:19;;;;;;;;;;;;;;;27.71;56.20;99517.52;1795691;78;20090;-82
2021/07/05 05:47:47;;;;;;;;;;;;;;;27.86;55.31;99508.22;1806328;78;20181;-69
2021/07/05 05:50:16;;;;;;;;;;;;;;;28.03;54.81;99511.75;1807746;78;20127;-77
2021/07/05 05:52:43;;;;;;;;;;;;;;;28.07;54.84;99503.61;1795867;78;22044;-73
2021/07/05 05:55:10;;;;;;;;;;;;;;;28.07;55.50;99508.96;1791499;78;20086;-74
2021/07/05 05:57:38;;;;;;;;;;;;;;;28.20;54.43;99507.57;1789210;78;20106;-73
2021/07/05 06:00:09;;;;;;;;;;;;;;;28.31;54.40;99508.28;1784379;80;20153;-73
2021/07/05 06:02:36;;;;;;;;;;;;;;;28.38;53.88;99505.05;1798951;78;20080;-78
2021/07/05 06:05:02;;;;;;;;;;;;;;;28.43;53.45;99498.52;1792977;79;21113;-79
2021/07/05 06:07:29;;;;;;;;;;;;;;;28.38;53.87;99499.70;1782988;79;20161;-77
2021/07/05 06:09:57;;;;;;;;;;;;;;;28.43;53.95;99508.41;1756670;79;20462;-78
2021/07/05 06:12:24;;;;;;;;;;;;;;;28.64;53.63;99504.07;1782002;79;20144;-78
2021/07/05 06:14:57;;;;;;;;;;;;;;;28.85;52.96;99516.31;1774500;79;20130;-77
2021/07/05 06:17:24;;;;;;;;;;;;;;;29.01;52.61;99519.81;1776959;79;21089;-79
2021/07/05 06:19:52;;;;;;;;;;;;;;;29.08;52.15;99516.56;1759670;79;20209;-78
2021/07/05 06:22:28;;;;;;;;;;;;;;;29.13;52.31;99524.78;1762926;79;20380;-74
2021/07/05 06:24:54;;;;;;;;;;;;;;;29.28;52.50;99528.45;1777919;78;20131;-74
2021/07/05 06:27:21;;;;;;;;;;;;;;;29.43;51.63;99527.63;1784960;80;20078;-70
2021/07/05 06:29:48;;;;;;;;;;;;;;;29.57;50.75;99529.67;1779114;80;21134;-74
2021/07/05 06:32:15;;;;;;;;;;;;;;;29.63;50.90;99534.66;1776433;78;20492;-71
2021/07/05 06:34:41;;;;;;;;;;;;;;;29.62;50.74;99533.02;1776222;78;20095;-74
2021/07/05 06:37:08;;;;;;;;;;;;;;;29.64;50.41;99546.50;1791366;78;20402;-71
2021/07/05 06:39:36;;;;;;;;;;;;;;;29.63;50.35;99530.11;1781283;78;20099;-74
2021/07/05 06:42:03;;;;;;;;;;;;;;;29.63;50.84;99519.89;1795747;79;21518;-73
2021/07/05 06:44:29;;;;;;;;;;;;;;;29.73;50.54;99518.34;1794468;79;20393;-74
2021/07/05 06:46:57;;;;;;;;;;;;;;;29.79;50.77;99510.75;1776429;79;20096;-73
2021/07/05 06:49:24;;;;;;;;;;;;;;;29.89;49.93;99509.41;1787447;79;20143;-71
2021/07/05 06:51:51;;;;;;;;;;;;;;;29.86;49.84;99511.50;1793567;78;20130;-74
2021/07/05 06:54:18;;;;;;;;;;;;;;;29.77;50.96;99505.30;1780987;79;21990;-74
2021/07/05 06:56:45;;;;;;;;;;;;;;;29.78;51.27;99515.81;1791969;79;20118;-77
2021/07/05 06:59:12;;;;;;;;;;;;;;;29.99;50.80;99506.51;1795037;79;20218;-72
2021/07/05 07:01:41;;;;;;;;;;;;;;;30.24;49.82;99501.58;1799785;79;20155;-77
2021/07/05 07:04:08;;;;;;;;;;;;;;;30.21;49.58;99516.27;1785193;79;20090;-78
2021/07/05 07:06:48;;;;;;;;;;;;;;;30.27;49.43;99504.63;1782889;79;21099;-78
2021/07/05 07:09:16;;;;;;;;;;;;;;;30.37;49.29;99506.78;1800548;79;20186;-76
2021/07/05 07:11:44;;;;;;;;;;;;;;;30.33;48.64;99502.38;1802249;79;20547;-75
2021/07/05 07:14:13;;;;;;;;;;;;;;;30.24;49.08;99515.82;1793166;79;20152;-76
2021/07/05 07:16:51;;;;;;;;;;;;;;;30.18;49.05;99509.48;1802464;78;20092;-72
2021/07/05 07:19:18;;;;;;;;;;;;;;;30.16;49.40;99507.55;1790414;78;20550;-72
2021/07/05 07:21:49;;;;;;;;;;;;;;;30.25;49.68;99516.64;1791462;78;20158;-74
2021/07/05 07:24:22;;;;;;;;;;;;;;;30.26;49.31;99499.48;1786085;79;20156;-72
2021/07/05 07:26:54;;;;;;;;;;;;;;;30.23;49.55;99502.62;1772388;79;20123;-74
2021/07/05 07:29:25;;;;;;;;;;;;;;;30.23;50.37;99513.36;1788541;79;20129;-78
2021/07/05 07:31:53;;;;;;;;;;;;;;;30.32;50.18;99506.11;1809506;79;21179;-76
2021/07/05 07:34:20;;;;;;;;;;;;;;;30.33;49.27;99497.53;1795878;79;20101;-75
2021/07/05 07:36:49;;;;;;;;;;;;;;;30.27;49.17;99503.81;1797770;79;20089;-75
2021/07/05 07:39:20;;;;;;;;;;;;;;;30.21;49.81;99513.59;1805211;79;20129;-75
2021/07/05 07:41:44;;;;;;;;;;;;;;;30.22;49.85;99511.20;1805367;79;20446;-73
2021/07/05 07:44:12;;;;;;;;;;;;;;;30.09;49.08;99510.83;1805252;79;20990;-75
2021/07/05 07:46:40;;;;;;;;;;;;;;;29.79;50.01;99520.66;1800751;79;20129;-74
2021/07/05 07:49:07;;;;;;;;;;;;;;;29.58;50.58;99520.59;1804321;79;20145;-75
2021/07/05 07:51:36;;;;;;;;;;;;;;;29.26;51.42;99514.95;1779401;79;20566;-77
2021/07/05 07:54:03;;;;;;;;;;;;;;;29.07;51.49;99518.13;1783391;79;20241;-76
2021/07/05 07:56:30;;;;;;;;;;;;;;;29.13;51.73;99518.08;1792616;79;21247;-72
2021/07/05 07:58:59;;;;;;;;;;;;;;;29.31;51.90;99520.48;1781318;78;20186;-72
2021/07/05 08:01:27;;;;;;;;;;;;;;;29.59;51.96;99510.67;1788159;79;20421;-71
2021/07/05 08:03:55;;;;;;;;;;;;;;;29.74;49.99;99515.96;1796540;79;20191;-69
2021/07/05 08:06:22;;;;;;;;;;;;;;;29.77;50.65;99510.15;1774197;79;20120;-74
2021/07/05 08:08:52;;;;;;;;;;;;;;;29.78;49.50;99516.34;1786526;79;21062;-71
2021/07/05 08:11:18;;;;;;;;;;;;;;;29.82;49.00;99512.98;1796608;78;20076;-73
2021/07/05 08:13:45;;;;;;;;;;;;;;;29.89;49.57;99504.86;1778135;79;20285;-77
2021/07/05 08:16:11;;;;;;;;;;;;;;;29.91;48.59;99505.46;1775652;79;20078;-76
2021/07/05 08:18:40;;;;;;;;;;;;;;;29.85;49.78;99509.03;1802625;79;20132;-72
2021/07/05 08:21:06;;;;;;;;;;;;;;;29.80;49.37;99529.84;1791037;79;21015;-71
2021/07/05 08:23:33;;;;;;;;;;;;;;;29.74;49.33;99515.96;1793270;78;20111;-72
2021/07/05 08:26:00;;;;;;;;;;;;;;;29.68;48.28;99515.51;1805907;78;20111;-73
2021/07/05 08:28:27;;;;;;;;;;;;;;;29.59;49.19;99537.51;1789525;78;20080;-72
2021/07/05 08:30:56;;;;;;;;;;;;;;;29.48;48.40;99518.92;1780905;78;20147;-72
2021/07/05 08:33:25;;;;;;;;;;;;;;;29.37;49.07;99523.11;1758653;80;21918;-75
2021/07/05 08:35:52;;;;;;;;;;;;;;;29.37;50.23;99520.95;1787315;79;20397;-74
2021/07/05 08:38:19;;;;;;;;;;;;;;;29.40;48.77;99524.02;1797835;79;20128;-74
2021/07/05 08:40:45;;;;;;;;;;;;;;;29.29;48.32;99530.61;1794026;79;20312;-74
2021/07/05 08:43:12;;;;;;;4.80;4.20;;;;;;;29.01;49.30;99530.53;1777663;79;20092;-71
2021/07/05 08:45:43;;;;;;;5.15;4.62;;;;;;;28.85;49.63;99527.86;1786632;78;20978;-71
2021/07/05 08:48:08;;;;;;;5.25;4.75;;;;;;;28.77;49.64;99515.23;1775659;79;20903;-70
2021/07/05 08:50:36;;;;;;;4.92;4.47;;;;;;;28.63;49.97;99517.16;1778504;79;21005;-72
2021/07/05 08:53:03;;;;;;;5.47;4.97;;;;;;;28.47;51.19;99518.99;1730036;81;21616;-73
2021/07/05 08:55:30;;;;;;;8.03;5.40;;;;;;;28.40;50.93;99520.36;1740298;82;20879;-73
2021/07/05 08:57:57;;;;;;;5.92;4.70;;;;;;;28.43;51.14;99519.94;1774428;79;21105;-72
2021/07/05 09:00:29;;;;;;;6.75;5.10;;;;;;;28.49;50.52;99514.25;1791688;79;20961;-73
2021/07/05 09:03:00;;;;;;;5.80;5.28;;;;;;;28.54;51.46;99519.78;1782312;79;20997;-71
2021/07/05 09:05:32;;;;;;;5.92;4.95;;;;;;;28.68;50.82;99518.68;1783379;79;20935;-70
2021/07/05 09:08:09;;;;;;;4.97;4.55;;;;;;;28.88;50.02;99534.64;1790540;78;20910;-75
2021/07/05 09:10:52;;;;;;;5.50;4.72;;;;;;;28.97;49.14;99529.33;1782670;78;21121;-74
2021/07/05 09:13:25;;;;;;;7.22;5.12;;;;;;;29.02;50.13;99533.52;1784075;78;20994;-75
2021/07/05 09:16:00;;;;;;;5.17;4.67;;;;;;;29.12;50.29;99531.17;1788441;78;21042;-70
2021/07/05 09:18:46;;;;;;;4.70;4.30;;;;;;;29.13;49.96;99537.36;1742779;80;20945;-73
2021/07/05 09:21:25;;;;;;;5.08;4.58;;;;;;;29.04;50.43;99530.10;1751574;80;20888;-74
2021/07/05 09:24:07;;;;;;;14.60;4.47;;;;;;;28.79;49.82;99527.34;1721729;81;21095;-76
2021/07/05 09:26:46;;;;;;;7.58;4.40;;;;;;;28.48;50.87;99532.69;1730428;81;21003;-80
2021/07/05 09:29:20;;;;;;;5.55;3.90;;;;;;;28.30;51.14;99529.91;1731786;81;20967;-79
2021/07/05 09:31:56;;;;;;;5.80;4.28;;;;;;;28.16;51.69;99533.12;1732039;81;21037;-78
2021/07/05 09:34:31;;;;;;;4.03;3.72;;;;;;;28.08;51.79;99536.85;1728848;81;20889;-79
2021/07/05 09:37:22;;;;;;;;;;;;;;;28.01;52.81;99534.71;1705031;83;22134;-77
2021/07/05 09:40:07;;;;;;;;;;;;;;;27.97;52.36;99530.84;1698100;81;20783;-77
2021/07/05 09:42:37;;;;;;;;;;;;;;;28.00;53.30;99545.63;1732574;81;20125;-77
2021/07/05 09:45:08;;;;;;;;;;;;;;;28.00;52.01;99544.29;1726867;81;20390;-76
2021/07/05 09:47:35;;;;;;;;;;;;;;;27.96;51.22;99547.93;1742205;81;20151;-77
2021/07/05 09:50:16;;;;;;;;;;;;;;;27.88;51.77;99532.92;1725702;81;21631;-78
2021/07/05 09:52:43;;;;;;;;;;;;;;;27.81;52.58;99525.94;1738766;81;20117;-78
2021/07/05 09:55:12;;;;;;;;;;;;;;;27.73;52.05;99549.72;1743883;81;20173;-74
2021/07/05 09:57:45;;;;;;;;;;;;;;;27.62;52.69;99527.61;1745803;81;20229;-76
2021/07/05 10:00:20;;;;;;;;;;;;;;;27.58;53.64;99545.62;1741447;81;20199;-80
2021/07/05 10:02:58;;;;;;;;;;;;;;;27.56;52.80;99532.45;1758990;81;20832;-71
2021/07/05 10:05:25;;;;;;;;;;;;;;;27.56;52.22;99538.63;1768371;81;20417;-72
2021/07/05 10:08:00;;;;;;;;;;;;;;;27.59;53.03;99527.23;1769731;81;20160;-73
2021/07/05 10:10:27;;;;;;;;;;;;;;;27.65;52.89;99535.22;1770349;81;20398;-71
2021/07/05 10:13:00;;;;;;;;;;;;;;;27.69;52.33;99533.77;1769455;81;20171;-72
2021/07/05 10:15:27;;;;;;;;;;;;;;;27.73;53.13;99528.83;1770366;79;21083;-73
2021/07/05 10:17:54;;;;;;;;;;;;;;;27.77;52.51;99533.55;1770981;79;20080;-72
2021/07/05 10:20:31;;;;;;;;;;;;;;;27.76;51.78;99530.58;1770347;81;20107;-74
2021/07/05 10:23:00;;;;;;;;;;;;;;;27.70;52.69;99526.06;1766991;81;20084;-73
2021/07/05 10:25:28;;;;;;;;;;;;;;;27.65;51.96;99531.20;1736933;81;20174;-73
2021/07/05 10:27:55;;;;;;;;;;;;;;;27.60;53.21;99516.81;1735846;82;21094;-72
2021/07/05 10:30:22;;;;;;;;;;;;;;;27.55;51.73;99529.47;1736340;81;20336;-74
2021/07/05 10:32:51;;;;;;;;;;;;;;;27.50;51.78;99529.27;1751391;81;20128;-73
2021/07/05 10:35:24;;;;;;;;;;;;;;;27.48;52.79;99519.29;1749637;81;20149;-74
2021/07/05 10:37:54;;;;;;;;;;;;;;;27.49;51.51;99510.23;1740918;81;20252;-70
2021/07/05 10:40:40;;;;;;;;;;;;;;;27.50;51.08;99527.92;1740698;81;21102;-74
2021/07/05 10:43:11;;;;;;;;;;;;;;;27.50;51.80;99518.56;1744524;81;20445;-73
2021/07/05 10:45:43;;;;;;;;;;;;;;;27.53;51.47;99520.83;1749556;81;20161;-73
2021/07/05 10:48:33;;;;;;;;;;;;;;;27.56;51.00;99513.73;1747830;81;20119;-74
2021/07/05 10:51:00;;;;;;;;;;;;;;;27.60;52.15;99516.81;1770510;81;20094;-77
2021/07/05 10:53:37;;;;;;;;;;;;;;;27.67;52.36;99521.13;1739184;81;21014;-77
2021/07/05 10:56:23;;;;;;;;;;;;;;;27.76;51.30;99512.36;1758749;80;20455;-74
2021/07/05 10:58:50;;;;;;;;;;;;;;;27.86;51.42;99519.44;1716551;82;20079;-73
2021/07/05 11:01:19;;;;;;;;;;;;;;;27.87;49.49;99521.91;1714881;82;20088;-73
2021/07/05 11:03:46;;;;;;;;;;;;;;;27.82;49.70;99530.26;1697983;83;20156;-71
2021/07/05 11:06:29;;;;;;;;;;;;;;;27.79;50.18;99519.45;1732700;81;21184;-73
2021/07/05 11:08:56;;;;;;;;;;;;;;;27.83;49.99;99518.01;1721817;81;20153;-72
2021/07/05 11:11:31;;;;;;;;;;;;;;;27.92;49.31;99523.95;1723890;81;20196;-74
2021/07/05 11:14:16;;;;;;;;;;;;;;;27.98;48.86;99521.78;1739152;81;20436;-73
2021/07/05 11:16:59;;;;;;;;;;;;;;;28.09;49.03;99516.27;1733419;81;20154;-75
2021/07/05 11:19:42;;;;;;;;;;;;;;;28.16;49.58;99517.88;1719735;81;21157;-72
2021/07/05 11:22:26;;;;;;;;;;;;;;;28.20;49.03;99528.48;1735479;81;20160;-75
2021/07/05 11:24:57;;;;;;;;;;;;;;;28.15;50.20;99513.56;1712276;81;20088;-75
2021/07/05 11:27:37;;;;;;;;;;;;;;;28.15;49.68;99527.47;1715767;82;20122;-75
2021/07/05 11:30:28;;;;;;;;;;;;;;;28.16;49.61;99509.03;1732359;81;20121;-76
2021/07/05 11:33:09;;;;;;;;;;;;;;;28.19;49.74;99505.93;1727371;81;20582;-74
2021/07/05 11:35:44;;;;;;;;;;;;;;;28.19;50.15;99505.93;1711611;82;20158;-79
2021/07/05 11:38:28;;;;;;;;;;;;;;;28.16;49.97;99499.66;1736703;81;20102;-78
2021/07/05 11:41:14;;;;;;;;;;;;;;;28.18;49.82;99519.02;1727858;81;20106;-78
2021/07/05 11:43:53;;;;;;;;;;;;;;;28.15;50.02;99506.88;1728958;81;20076;-78
2021/07/05 11:46:33;;;;;;;;;;;;;;;28.12;49.22;99503.28;1724047;81;21907;-75
2021/07/05 11:49:01;;;;;;;;;;;;;;;28.13;49.60;99508.94;1733889;81;20329;-73
2021/07/05 11:51:37;;;;;;;;;;;;;;;28.18;49.98;99517.67;1743243;81;20081;-78
2021/07/05 11:54:09;;;;;;;;;;;;;;;28.20;48.70;99500.88;1744613;81;20100;-79
2021/07/05 11:56:44;;;;;;;;;;;;;;;28.19;49.64;99523.33;1742325;81;20095;-77
2021/07/05 11:59:13;;;;;;;;;;;;;;;28.18;49.58;99505.63;1739918;81;21151;-75
2021/07/05 12:01:41;;;;;;;;;;;;;;;28.23;48.47;99508.52;1740423;81;20119;-75
2021/07/05 12:04:10;;;;;;;;;;;;;;;28.26;49.08;99492.55;1736151;82;20111;-75
2021/07/05 12:06:40;;;;;;;;;;;;;;;28.29;48.46;99488.11;1730933;81;20096;-77
2021/07/05 12:09:08;;;;;;;;;;;;;;;28.31;47.78;99494.07;1721892;81;20119;-80
2021/07/05 12:11:38;;;;;;;;;;;;;;;28.28;48.24;99495.84;1728946;81;21129;-76
2021/07/05 12:14:10;;;;;;;;;;;;;;;28.20;49.32;99488.31;1727944;81;20168;-75
2021/07/05 12:16:39;;;;;;;;;;;;;;;28.15;49.67;99492.14;1734273;81;20083;-76
2021/07/05 12:19:09;;;;;;;;;;;;;;;28.13;50.19;99492.05;1738167;81;20143;-75
2021/07/05 12:21:37;;;;;;;;;;;;;;;28.10;50.06;99491.14;1725979;81;20107;-80
2021/07/05 12:24:11;;;;;;;;;;;;;;;28.10;49.54;99479.09;1719478;81;21153;-78
2021/07/05 12:26:41;;;;;;;;;;;;;;;28.12;49.29;99483.20;1721682;82;20089;-77
2021/07/05 12:29:23;;;;;;;;;;;;;;;28.14;49.50;99486.48;1722020;82;20104;-73
2021/07/05 12:32:06;;;;;;;;;;;;;;;28.17;48.89;99482.56;1732484;82;20224;-77
2021/07/05 12:34:52;;;;;;;;;;;;;;;28.18;48.84;99494.92;1739197;81;20151;-75
2021/07/05 12:37:26;;;;;;;;;;;;;;;28.16;49.11;99486.27;1751328;81;20068;-73
2021/07/05 12:40:12;;;;;;;;;;;;;;;28.18;49.27;99484.20;1722856;82;20103;-79
2021/07/05 12:42:59;;;;;;;;;;;;;;;28.23;49.31;99484.42;1741496;81;20407;-81
2021/07/05 12:45:34;;;;;;;;;;;;;;;28.35;48.90;99486.73;1740981;81;20150;-80
2021/07/05 12:48:22;;;;;;;;;;;;;;;28.37;48.09;99479.83;1742254;81;20119;-76
2021/07/05 12:51:00;;;;;;;;;;;;;;;28.30;48.04;99482.54;1723471;81;21161;-77
2021/07/05 12:53:42;;;;;;;;;;;;;;;28.16;49.01;99478.24;1741635;81;20122;-77
2021/07/05 12:56:20;;;;;;;;;;;;;;;28.10;49.50;99470.55;1724757;81;20108;-77
2021/07/05 12:58:59;;;;;;;;;;;;;;;28.08;50.12;99469.94;1700113;80;20470;-76
2021/07/05 13:01:32;;;;;;;;;;;;;;;28.08;50.69;99457.89;1747536;82;20455;-74
2021/07/05 13:04:11;;;;;;;;;;;;;;;28.07;49.52;99462.94;1767511;80;22514;-72
2021/07/05 13:07:09;;;;;;;;;;;;;;;28.03;48.82;99454.20;1755033;80;20095;-75
2021/07/05 13:09:35;;;;;;;;;;;;;;;27.97;49.34;99457.24;1734654;80;20382;-75
2021/07/05 13:12:06;;;;;;;;;;;;;;;27.93;50.57;99447.99;1752017;80;20106;-73
2021/07/05 13:14:34;;;;;;;;;;;;;;;27.91;50.57;99455.41;1753942;81;20176;-74
2021/07/05 13:17:14;;;;;;;;;;;;;;;27.88;50.82;99451.82;1772377;80;20118;-74
2021/07/05 13:19:42;;;;;;;;;;;;;;;27.79;50.28;99443.20;1744842;80;20092;-76
2021/07/05 13:22:25;;;;;;;;;;;;;;;27.75;50.84;99450.52;1747381;82;20095;-71
2021/07/05 13:24:49;;;;;;;;;;;;;;;27.76;51.25;99458.34;1756155;80;20119;-71
2021/07/05 13:27:18;;;;;;;;;;;;;;;27.83;50.73;99459.66;1745302;80;20202;-73
2021/07/05 13:29:48;;;;;;;;;;;;;;;27.84;50.16;99454.09;1754310;80;21065;-75
2021/07/05 13:32:20;;;;;;;;;;;;;;;27.82;50.25;99446.80;1746988;80;20084;-72
2021/07/05 13:35:04;;;;;;;;;;;;;;;27.78;50.47;99453.59;1743747;80;20083;-76
2021/07/05 13:37:41;;;;;;;;;;;;;;;27.76;51.04;99451.65;1745728;80;20343;-77
2021/07/05 13:40:10;;;;;;;;;;;;;;;27.74;50.50;99456.39;1730313;80;20146;-72
2021/07/05 13:42:45;;;;;;;;;;;;;;;27.76;50.40;99461.02;1741887;80;21757;-72
2021/07/05 13:45:16;;;;;;;;;;;;;;;27.79;49.71;99455.76;1743479;80;20089;-77
2021/07/05 13:47:50;;;;;;;;;;;;;;;27.79;50.03;99453.91;1745290;80;20071;-75
2021/07/05 13:50:20;;;;;;;;;;;;;;;27.78;50.14;99449.59;1735155;80;20129;-75
2021/07/05 13:52:59;;;;;;;;;;;;;;;27.76;51.01;99453.50;1743735;80;20086;-77
2021/07/05 13:55:29;;;;;;;;;;;;;;;27.72;51.06;99450.94;1746192;81;21988;-71
2021/07/05 13:58:02;;;;;;;;;;;;;;;27.67;50.91;99454.77;1762307;80;20124;-74
2021/07/05 14:00:29;;;;;;;;;;;;;;;27.63;51.14;99442.84;1740040;80;20914;-75
2021/07/05 14:02:56;;;;;;;;;;;;;;;27.56;51.57;99445.53;1729837;81;20119;-75
2021/07/05 14:05:27;;;;;;;;;;;;;;;27.54;51.86;99443.06;1722864;82;20294;-76
2021/07/05 14:07:53;;;;;;;;;;;;;;;27.56;51.63;99446.86;1725446;82;21848;-73
2021/07/05 14:10:20;;;;;;;;;;;;;;;27.58;51.84;99446.14;1661822;84;20470;-74
2021/07/05 14:12:47;;;;;;;;;;;;;;;27.58;50.97;99452.83;1720382;81;20426;-73
2021/07/05 14:15:14;;;;;;;;;;;;;;;27.56;51.01;99453.03;1718025;82;20451;-74
2021/07/05 14:17:40;;;;;;;;;;;;;;;27.56;51.64;99446.34;1718456;82;20098;-73
2021/07/05 14:20:09;;;;;;;;;;;;;;;27.59;51.30;99449.16;1706213;83;21220;-71
2021/07/05 14:22:37;;;;;;;;;;;;;;;27.60;51.43;99448.61;1707650;83;20153;-76
2021/07/05 14:25:05;;;;;;;;;;;;;;;27.62;51.95;99450.04;1707430;83;20102;-75
2021/07/05 14:27:32;;;;;;;;;;;;;;;27.63;50.92;99470.41;1707577;83;20106;-74
2021/07/05 14:29:59;;;;;;;;;;;;;;;27.58;50.43;99454.16;1707690;83;20118;-75
2021/07/05 14:32:28;;;;;;;;;;;;;;;27.50;50.97;99451.71;1706345;84;20495;-75
2021/07/05 14:34:55;;;;;;;;;;;;;;;27.43;51.42;99457.59;1707314;83;20114;-75
2021/07/05 14:37:22;;;;;;;;;;;;;;;27.37;51.21;99450.39;1707718;84;20102;-75
2021/07/05 14:39:49;;;;;;;;;;;;;;;27.35;51.51;99451.11;1707309;83;20095;-75
2021/07/05 14:42:15;;;;;;;;;;;;;;;27.35;51.41;99450.59;1707607;83;20149;-73
2021/07/05 14:44:43;;;;;;;;;;;;;;;27.39;51.79;99448.33;1707603;83;21780;-73
2021/07/05 14:47:11;;;;;;;;;;;;;;;27.41;52.58;99451.63;1707258;83;20094;-74
2021/07/05 14:49:38;;;;;;;;;;;;;;;27.38;51.80;99454.20;1707406;83;20118;-74
2021/07/05 14:52:10;;;;;;;;;;;;;;;27.29;51.91;99459.45;1707585;83;20122;-74
2021/07/05 14:54:37;;;;;;;;;;;;;;;27.21;52.53;99465.83;1707460;83;20129;-73
2021/07/05 14:57:04;;;;;;;;;;;;;;;27.11;53.15;99464.11;1707573;84;21146;-74
2021/07/05 14:59:31;;;;;;;;;;;;;;;27.08;53.57;99456.51;1707150;83;20160;-75
2021/07/05 15:01:58;;;;;;;;;;;;;;;27.04;53.81;99449.93;1707351;83;20432;-75
2021/07/05 15:04:25;;;;;;;;;;;;;;;27.03;53.53;99444.27;1707309;84;20416;-74
2021/07/05 15:06:53;;;;;;;;;;;;;;;27.05;53.35;99445.41;1707355;84;20122;-73
2021/07/05 15:09:21;;;;;;;;;;;;;;;27.08;53.03;99446.33;1707302;83;21129;-74
2021/07/05 15:11:47;;;;;;;;;;;;;;;27.11;53.65;99441.39;1707364;83;20097;-73
2021/07/05 15:14:14;;;;;;;;;;;;;;;27.21;53.74;99442.28;1709134;82;20114;-74
2021/07/05 15:16:41;;;;;;;;;;;;;;;27.28;54.01;99442.28;1743065;81;20422;-74
2021/07/05 15:19:09;;;;;;;;;;;;;;;27.34;54.08;99441.45;1745013;81;21018;-72
2021/07/05 15:21:36;;;;;;;;;;;;;;;27.39;52.84;99442.98;1738055;81;21532;-73
2021/07/05 15:24:03;;;;;;;;;;;;;;;27.40;52.27;99452.13;1748406;81;20141;-73
2021/07/05 15:26:30;;;;;;;;;;;;;;;27.38;52.60;99448.03;1743179;81;20113;-72
2021/07/05 15:28:58;;;;;;;;;;;;;;;27.35;52.38;99447.92;1734406;81;20137;-73
2021/07/05 15:31:26;;;;;;;;;;;;;;;27.33;52.81;99442.48;1739135;81;20484;-73
2021/07/05 15:33:52;;;;;;;;;;;;;;;27.31;53.07;99439.19;1744534;81;21780;-73
2021/07/05 15:36:19;;;;;;;;;;;;;;;27.30;52.66;99441.55;1736927;81;20133;-73
2021/07/05 15:38:48;;;;;;;;;;;;;;;27.28;52.94;99447.11;1738528;81;20189;-73
2021/07/05 15:41:15;;;;;;;;;;;;;;;27.28;53.03;99442.28;1722305;83;20105;-72
2021/07/05 15:43:42;;;;;;;;;;;;;;;27.24;53.43;99453.38;1729286;82;20100;-72
2021/07/05 15:46:09;;;;;;;;;;;;;;;27.23;53.35;99453.08;1739307;81;21082;-74
2021/07/05 15:48:36;;;;;;;;;;;;;;;27.20;53.57;99448.14;1737541;81;20184;-73
2021/07/05 15:51:05;;;;;;;;;;;;;;;27.18;53.67;99464.94;1740140;82;20091;-74
2021/07/05 15:53:32;;;;;;;;;;;;;;;27.18;53.79;99457.43;1739874;81;20105;-74
2021/07/05 15:55:59;;;;;;;;;;;;;;;27.16;54.04;99454.97;1737040;81;20125;-74
2021/07/05 15:58:26;;;;;;;;;;;;;;;27.14;54.29;99461.55;1738239;81;21780;-74
2021/07/05 16:00:54;;;;;;;;;;;;;;;27.09;54.90;99462.67;1734881;81;20137;-76
2021/07/05 16:03:23;;;;;;;;;;;;;;;27.02;55.37;99468.02;1744152;81;20125;-74
2021/07/05 16:05:50;;;;;;;;;;;;;;;26.99;55.77;99475.63;1744388;81;20427;-74
2021/07/05 16:08:17;;;;;;;;;;;;;;;26.94;55.78;99475.37;1745853;81;20490;-74
2021/07/05 16:10:44;;;;;;;;;;;;;;;26.87;55.68;99467.36;1742376;81;21108;-75
2021/07/05 16:13:11;;;;;;;;;;;;;;;26.81;56.01;99478.34;1744366;81;20149;-77
2021/07/05 16:15:38;;;;;;;;;;;;;;;26.74;56.22;99484.22;1744208;81;20153;-78
2021/07/05 16:18:05;;;;;;;;;;;;;;;26.67;56.32;99485.23;1740910;81;20075;-79
2021/07/05 16:20:33;;;;;;;;;;;;;;;26.60;56.67;99487.06;1760166;81;20149;-79
2021/07/05 16:23:00;;;;;;;;;;;;;;;26.51;56.85;99483.24;1760202;81;21097;-75
2021/07/05 16:25:27;;;;;;;;;;;;;;;26.46;57.24;99492.88;1753743;80;20125;-75
2021/07/05 16:27:56;;;;;;;;;;;;;;;26.38;57.49;99496.58;1744910;81;20149;-77
2021/07/05 16:30:23;;;;;;;;;;;;;;;26.32;57.78;99496.55;1747978;81;20121;-78
2021/07/05 16:32:50;;;;;;;;;;;;;;;26.25;58.05;99499.17;1746436;81;20115;-79
2021/07/05 16:35:17;;;;;;;;;;;;;;;26.20;57.96;99503.77;1711246;81;21163;-81
2021/07/05 16:37:44;;;;;;;;;;;;;;;26.12;57.82;99505.27;1730773;82;20145;-78
2021/07/05 16:40:12;;;;;;;;;;;;;;;26.09;57.97;99510.17;1745555;81;20113;-76
2021/07/05 16:42:39;;;;;;;;;;;;;;;26.06;57.92;99509.23;1730606;81;20149;-77
2021/07/05 16:45:06;;;;;;;;;;;;;;;26.06;57.95;99525.25;1742334;81;20130;-78
2021/07/05 16:47:37;;;;;;;;;;;;;;;26.07;58.09;99526.89;1739829;81;21840;-75
2021/07/05 16:50:05;;;;;;;;;;;;;;;26.08;58.29;99533.38;1749839;81;20473;-75
2021/07/05 16:52:32;;;;;;;;;;;;;;;26.08;58.38;99533.38;1736972;82;20083;-75
2021/07/05 16:55:01;;;;;;;;;;;;;;;26.09;58.51;99532.86;1736894;82;20137;-76
2021/07/05 16:57:28;;;;;;;;;;;;;;;26.09;58.75;99540.86;1736919;82;20119;-75
2021/07/05 16:59:59;;;;;;;;;;;;;;;26.10;58.78;99547.34;1736624;82;21948;-74
2021/07/05 17:02:26;;;;;;;;;;;;;;;26.11;58.89;99544.16;1736723;82;20099;-74
2021/07/05 17:04:53;;;;;;;;;;;;;;;26.11;58.81;99550.32;1736644;82;20115;-75
2021/07/05 17:07:20;;;;;;;;;;;;;;;26.08;58.88;99547.22;1736869;81;20100;-77
2021/07/05 17:09:48;;;;;;;;;;;;;;;26.07;58.75;99548.24;1736726;82;20095;-76
2021/07/05 17:12:15;;;;;;;;;;;;;;;26.05;58.91;99562.29;1736908;81;21116;-76
2021/07/05 17:14:42;;;;;;;;;;;;;;;26.04;59.05;99562.80;1736668;82;20136;-74
2021/07/05 17:17:09;;;;;;;;;;;;;;;26.01;59.21;99564.53;1736713;82;20127;-76
2021/07/05 17:19:36;;;;;;;;;;;;;;;25.98;59.45;99564.95;1736771;82;20469;-75
2021/07/05 17:22:03;;;;;;;;;;;;;;;25.93;59.47;99567.89;1737216;82;20393;-74
2021/07/05 17:24:30;;;;;;;;;;;;;;;25.86;59.89;99567.84;1737533;82;21119;-73
2021/07/05 17:26:57;;;;;;;;;;;;;;;25.79;60.19;99554.47;1736853;82;20119;-76
2021/07/05 17:29:24;;;;;;;;;;;;;;;25.72;60.50;99564.27;1736105;82;20445;-76
2021/07/05 17:31:51;;;;;;;;;;;;;;;25.65;60.78;99568.72;1735458;82;20126;-75
2021/07/05 17:34:19;;;;;;;;;;;;;;;25.56;60.97;99568.55;1735451;81;20469;-75
2021/07/05 17:36:46;;;;;;;;;;;;;;;25.51;61.39;99565.63;1735976;82;21132;-74
2021/07/05 17:39:13;;;;;;;;;;;;;;;25.46;61.77;99570.72;1736709;82;20100;-76
2021/07/05 17:41:39;;;;;;;;;;;;;;;25.40;62.20;99567.48;1736318;82;20413;-76
2021/07/05 17:44:06;;;;;;;;;;;;;;;25.35;62.54;99569.39;1735626;82;20460;-75
2021/07/05 17:46:33;;;;;;;;;;;;;;;25.31;62.79;99568.63;1736714;81;20072;-76
2021/07/05 17:48:59;;;;;;;;;;;;;;;25.24;62.95;99569.39;1736848;82;21124;-76
2021/07/05 17:51:26;;;;;;;;;;;;;;;25.19;63.23;99568.34;1735246;82;20118;-77
2021/07/05 17:53:54;;;;;;;;;;;;;;;25.14;63.45;99573.42;1735733;82;20155;-77